sensor_id;sensor_type;location;lat;lon;timestamp;temperature;humidity
34095;DHT22;20372;47.080;15.410;2023-07-20T00:01:52;22.20;95.90
34095;DHT22;20372;47.080;15.410;2023-07-20T00:04:17;22.20;95.80
34095;DHT22;20372;47.080;15.410;2023-07-20T00:06:43;22.20;97.00
34095;DHT22;20372;47.080;15.410;2023-07-20T00:09:08;22.00;97.00
34095;DHT22;20372;47.080;15.410;2023-07-20T00:11:37;22.00;97.40
34095;DHT22;20372;47.080;15.410;2023-07-20T00:14:04;22.00;96.50
34095;DHT22;20372;47.080;15.410;2023-07-20T00:16:30;22.10;96.20
34095;DHT22;20372;47.080;15.410;2023-07-20T00:18:56;22.10;96.50
34095;DHT22;20372;47.080;15.410;2023-07-20T00:21:21;22.00;96.90
34095;DHT22;20372;47.080;15.410;2023-07-20T00:23:47;21.90;96.60
34095;DHT22;20372;47.080;15.410;2023-07-20T00:26:12;21.90;96.40
34095;DHT22;20372;47.080;15.410;2023-07-20T00:28:38;21.80;96.30
34095;DHT22;20372;47.080;15.410;2023-07-20T00:31:04;21.80;95.80
34095;DHT22;20372;47.080;15.410;2023-07-20T00:33:29;21.90;95.20
34095;DHT22;20372;47.080;15.410;2023-07-20T00:35:55;21.90;94.60
34095;DHT22;20372;47.080;15.410;2023-07-20T00:38:21;22.00;94.60
34095;DHT22;20372;47.080;15.410;2023-07-20T00:40:46;22.00;94.30
34095;DHT22;20372;47.080;15.410;2023-07-20T00:43:13;22.10;94.50
34095;DHT22;20372;47.080;15.410;2023-07-20T00:45:39;22.00;94.70
34095;DHT22;20372;47.080;15.410;2023-07-20T00:48:04;21.90;94.60
34095;DHT22;20372;47.080;15.410;2023-07-20T00:50:31;21.90;94.50
34095;DHT22;20372;47.080;15.410;2023-07-20T00:52:57;22.00;94.30
34095;DHT22;20372;47.080;15.410;2023-07-20T00:55:24;22.00;94.30
34095;DHT22;20372;47.080;15.410;2023-07-20T00:57:50;22.00;94.30
34095;DHT22;20372;47.080;15.410;2023-07-20T01:00:16;22.00;94.00
34095;DHT22;20372;47.080;15.410;2023-07-20T01:02:42;22.10;93.90
34095;DHT22;20372;47.080;15.410;2023-07-20T01:05:07;22.00;93.90
34095;DHT22;20372;47.080;15.410;2023-07-20T01:07:37;22.00;93.70
34095;DHT22;20372;47.080;15.410;2023-07-20T01:12:35;22.00;93.50
34095;DHT22;20372;47.080;15.410;2023-07-20T01:15:05;22.00;94.50
34095;DHT22;20372;47.080;15.410;2023-07-20T01:17:33;21.80;94.90
34095;DHT22;20372;47.080;15.410;2023-07-20T01:19:58;21.70;95.10
34095;DHT22;20372;47.080;15.410;2023-07-20T01:24:52;21.80;94.00
34095;DHT22;20372;47.080;15.410;2023-07-20T01:32:27;22.10;93.40
34095;DHT22;20372;47.080;15.410;2023-07-20T01:34:54;22.10;93.30
34095;DHT22;20372;47.080;15.410;2023-07-20T01:37:22;22.10;93.30
34095;DHT22;20372;47.080;15.410;2023-07-20T01:39:51;22.10;93.10
34095;DHT22;20372;47.080;15.410;2023-07-20T01:42:20;22.10;93.20
34095;DHT22;20372;47.080;15.410;2023-07-20T01:44:46;22.10;93.30
34095;DHT22;20372;47.080;15.410;2023-07-20T01:47:12;22.10;93.50
34095;DHT22;20372;47.080;15.410;2023-07-20T01:49:37;22.00;93.50
34095;DHT22;20372;47.080;15.410;2023-07-20T01:52:03;22.00;93.40
34095;DHT22;20372;47.080;15.410;2023-07-20T01:54:29;22.00;93.30
34095;DHT22;20372;47.080;15.410;2023-07-20T01:56:54;22.00;92.90
34095;DHT22;20372;47.080;15.410;2023-07-20T01:59:20;22.10;92.80
34095;DHT22;20372;47.080;15.410;2023-07-20T02:01:46;22.10;93.20
34095;DHT22;20372;47.080;15.410;2023-07-20T02:04:11;22.10;92.70
34095;DHT22;20372;47.080;15.410;2023-07-20T02:06:37;22.10;92.70
34095;DHT22;20372;47.080;15.410;2023-07-20T02:09:04;22.10;93.20
34095;DHT22;20372;47.080;15.410;2023-07-20T02:11:29;22.10;93.00
34095;DHT22;20372;47.080;15.410;2023-07-20T02:13:55;22.00;94.00
34095;DHT22;20372;47.080;15.410;2023-07-20T02:16:20;21.80;94.80
34095;DHT22;20372;47.080;15.410;2023-07-20T02:18:46;21.70;94.70
34095;DHT22;20372;47.080;15.410;2023-07-20T02:21:12;21.70;94.70
34095;DHT22;20372;47.080;15.410;2023-07-20T02:23:37;21.70;94.40
34095;DHT22;20372;47.080;15.410;2023-07-20T02:26:03;21.70;94.70
34095;DHT22;20372;47.080;15.410;2023-07-20T02:28:28;21.60;94.30
34095;DHT22;20372;47.080;15.410;2023-07-20T02:30:54;21.60;93.70
34095;DHT22;20372;47.080;15.410;2023-07-20T02:33:19;21.80;93.50
34095;DHT22;20372;47.080;15.410;2023-07-20T02:35:46;21.90;92.60
34095;DHT22;20372;47.080;15.410;2023-07-20T02:38:12;22.00;92.20
34095;DHT22;20372;47.080;15.410;2023-07-20T02:40:37;22.00;92.20
34095;DHT22;20372;47.080;15.410;2023-07-20T02:43:03;22.10;92.30
34095;DHT22;20372;47.080;15.410;2023-07-20T02:45:29;22.00;92.40
34095;DHT22;20372;47.080;15.410;2023-07-20T02:47:54;22.00;92.30
34095;DHT22;20372;47.080;15.410;2023-07-20T02:50:20;22.10;92.20
34095;DHT22;20372;47.080;15.410;2023-07-20T02:52:45;22.10;92.00
34095;DHT22;20372;47.080;15.410;2023-07-20T02:55:11;22.20;91.80
34095;DHT22;20372;47.080;15.410;2023-07-20T02:57:36;22.20;91.80
34095;DHT22;20372;47.080;15.410;2023-07-20T03:00:03;22.20;91.80
34095;DHT22;20372;47.080;15.410;2023-07-20T03:02:30;22.10;92.20
34095;DHT22;20372;47.080;15.410;2023-07-20T03:04:56;22.00;92.30
34095;DHT22;20372;47.080;15.410;2023-07-20T03:07:22;21.90;92.40
34095;DHT22;20372;47.080;15.410;2023-07-20T03:09:48;21.90;92.60
34095;DHT22;20372;47.080;15.410;2023-07-20T03:12:14;21.80;93.40
34095;DHT22;20372;47.080;15.410;2023-07-20T03:14:39;21.60;93.40
34095;DHT22;20372;47.080;15.410;2023-07-20T03:17:05;21.60;93.60
34095;DHT22;20372;47.080;15.410;2023-07-20T03:19:30;21.60;93.40
34095;DHT22;20372;47.080;15.410;2023-07-20T03:21:56;21.60;93.50
34095;DHT22;20372;47.080;15.410;2023-07-20T03:24:22;21.50;93.80
34095;DHT22;20372;47.080;15.410;2023-07-20T03:26:48;21.40;94.00
34095;DHT22;20372;47.080;15.410;2023-07-20T03:29:14;21.40;93.70
34095;DHT22;20372;47.080;15.410;2023-07-20T03:31:41;21.40;93.50
34095;DHT22;20372;47.080;15.410;2023-07-20T03:34:07;21.50;93.30
34095;DHT22;20372;47.080;15.410;2023-07-20T03:36:34;21.50;93.60
34095;DHT22;20372;47.080;15.410;2023-07-20T03:38:59;21.50;93.10
34095;DHT22;20372;47.080;15.410;2023-07-20T03:41:25;21.50;93.30
34095;DHT22;20372;47.080;15.410;2023-07-20T03:43:50;21.50;93.40
34095;DHT22;20372;47.080;15.410;2023-07-20T03:46:16;21.40;93.60
34095;DHT22;20372;47.080;15.410;2023-07-20T03:48:42;21.50;93.10
34095;DHT22;20372;47.080;15.410;2023-07-20T03:51:08;21.50;93.10
34095;DHT22;20372;47.080;15.410;2023-07-20T03:53:33;21.70;92.50
34095;DHT22;20372;47.080;15.410;2023-07-20T03:55:59;21.70;92.60
34095;DHT22;20372;47.080;15.410;2023-07-20T03:58:25;21.70;92.60
34095;DHT22;20372;47.080;15.410;2023-07-20T04:00:51;21.70;92.60
34095;DHT22;20372;47.080;15.410;2023-07-20T04:03:17;21.70;92.50
34095;DHT22;20372;47.080;15.410;2023-07-20T04:05:43;21.80;92.70
34095;DHT22;20372;47.080;15.410;2023-07-20T04:08:09;21.70;92.80
34095;DHT22;20372;47.080;15.410;2023-07-20T04:10:36;21.70;92.90
34095;DHT22;20372;47.080;15.410;2023-07-20T04:13:02;21.60;93.00
34095;DHT22;20372;47.080;15.410;2023-07-20T04:15:27;21.40;94.30
34095;DHT22;20372;47.080;15.410;2023-07-20T04:17:53;21.10;94.30
34095;DHT22;20372;47.080;15.410;2023-07-20T04:20:19;21.10;94.80
34095;DHT22;20372;47.080;15.410;2023-07-20T04:22:44;21.10;94.80
34095;DHT22;20372;47.080;15.410;2023-07-20T04:25:10;21.10;94.60
34095;DHT22;20372;47.080;15.410;2023-07-20T04:27:36;21.20;94.20
34095;DHT22;20372;47.080;15.410;2023-07-20T04:30:02;21.30;93.90
34095;DHT22;20372;47.080;15.410;2023-07-20T04:32:29;21.40;93.70
34095;DHT22;20372;47.080;15.410;2023-07-20T04:34:54;21.40;93.70
34095;DHT22;20372;47.080;15.410;2023-07-20T04:37:20;21.40;93.90
34095;DHT22;20372;47.080;15.410;2023-07-20T04:39:46;21.40;94.00
34095;DHT22;20372;47.080;15.410;2023-07-20T04:42:11;21.40;94.10
34095;DHT22;20372;47.080;15.410;2023-07-20T04:44:37;21.40;94.40
34095;DHT22;20372;47.080;15.410;2023-07-20T04:47:02;21.40;94.40
34095;DHT22;20372;47.080;15.410;2023-07-20T04:49:28;21.40;94.00
34095;DHT22;20372;47.080;15.410;2023-07-20T04:51:54;21.40;94.20
34095;DHT22;20372;47.080;15.410;2023-07-20T04:54:19;21.40;94.20
34095;DHT22;20372;47.080;15.410;2023-07-20T04:56:45;21.40;94.20
34095;DHT22;20372;47.080;15.410;2023-07-20T04:59:11;21.40;94.30
34095;DHT22;20372;47.080;15.410;2023-07-20T05:01:36;21.50;94.30
34095;DHT22;20372;47.080;15.410;2023-07-20T05:04:02;21.50;94.30
34095;DHT22;20372;47.080;15.410;2023-07-20T05:06:27;21.40;94.30
34095;DHT22;20372;47.080;15.410;2023-07-20T05:08:53;21.50;94.40
34095;DHT22;20372;47.080;15.410;2023-07-20T05:11:19;21.50;94.50
34095;DHT22;20372;47.080;15.410;2023-07-20T05:13:45;21.50;94.60
34095;DHT22;20372;47.080;15.410;2023-07-20T05:16:11;21.50;94.50
34095;DHT22;20372;47.080;15.410;2023-07-20T05:18:36;21.50;94.70
34095;DHT22;20372;47.080;15.410;2023-07-20T05:21:02;21.40;95.30
34095;DHT22;20372;47.080;15.410;2023-07-20T05:23:27;21.30;95.30
34095;DHT22;20372;47.080;15.410;2023-07-20T05:25:54;21.30;95.30
34095;DHT22;20372;47.080;15.410;2023-07-20T05:28:19;21.30;95.10
34095;DHT22;20372;47.080;15.410;2023-07-20T05:30:45;21.40;95.00
34095;DHT22;20372;47.080;15.410;2023-07-20T05:33:10;21.50;94.60
34095;DHT22;20372;47.080;15.410;2023-07-20T05:35:36;21.50;94.60
34095;DHT22;20372;47.080;15.410;2023-07-20T05:38:02;21.50;94.30
34095;DHT22;20372;47.080;15.410;2023-07-20T05:40:29;21.60;94.40
34095;DHT22;20372;47.080;15.410;2023-07-20T05:42:55;21.70;94.10
34095;DHT22;20372;47.080;15.410;2023-07-20T05:45:22;21.70;94.20
34095;DHT22;20372;47.080;15.410;2023-07-20T05:47:47;21.80;93.90
34095;DHT22;20372;47.080;15.410;2023-07-20T05:50:13;21.90;93.70
34095;DHT22;20372;47.080;15.410;2023-07-20T05:52:39;22.20;94.10
34095;DHT22;20372;47.080;15.410;2023-07-20T05:55:06;23.40;92.70
34095;DHT22;20372;47.080;15.410;2023-07-20T05:57:32;23.40;92.10
34095;DHT22;20372;47.080;15.410;2023-07-20T05:59:57;23.80;91.70
34095;DHT22;20372;47.080;15.410;2023-07-20T06:02:23;22.80;92.50
34095;DHT22;20372;47.080;15.410;2023-07-20T06:04:48;22.50;92.90
34095;DHT22;20372;47.080;15.410;2023-07-20T06:07:15;22.30;93.40
34095;DHT22;20372;47.080;15.410;2023-07-20T06:09:40;22.30;93.40
34095;DHT22;20372;47.080;15.410;2023-07-20T06:12:06;22.30;93.90
34095;DHT22;20372;47.080;15.410;2023-07-20T06:14:32;22.40;93.40
34095;DHT22;20372;47.080;15.410;2023-07-20T06:16:57;22.40;93.30
34095;DHT22;20372;47.080;15.410;2023-07-20T06:19:23;22.50;93.60
34095;DHT22;20372;47.080;15.410;2023-07-20T06:21:48;22.50;93.60
34095;DHT22;20372;47.080;15.410;2023-07-20T06:24:17;22.60;92.60
34095;DHT22;20372;47.080;15.410;2023-07-20T06:26:43;22.60;92.90
34095;DHT22;20372;47.080;15.410;2023-07-20T06:29:08;22.70;92.90
34095;DHT22;20372;47.080;15.410;2023-07-20T06:31:35;22.70;92.50
34095;DHT22;20372;47.080;15.410;2023-07-20T06:34:01;22.70;92.60
34095;DHT22;20372;47.080;15.410;2023-07-20T06:36:27;22.80;92.80
34095;DHT22;20372;47.080;15.410;2023-07-20T06:38:53;23.00;93.50
34095;DHT22;20372;47.080;15.410;2023-07-20T06:41:18;23.20;93.10
34095;DHT22;20372;47.080;15.410;2023-07-20T06:43:45;23.80;94.00
34095;DHT22;20372;47.080;15.410;2023-07-20T06:46:10;24.30;91.40
34095;DHT22;20372;47.080;15.410;2023-07-20T06:48:36;24.00;91.90
34095;DHT22;20372;47.080;15.410;2023-07-20T06:51:01;24.10;91.70
34095;DHT22;20372;47.080;15.410;2023-07-20T06:53:28;23.80;91.40
34095;DHT22;20372;47.080;15.410;2023-07-20T06:55:53;23.60;92.10
34095;DHT22;20372;47.080;15.410;2023-07-20T06:58:19;23.50;91.70
34095;DHT22;20372;47.080;15.410;2023-07-20T07:00:46;23.30;92.50
34095;DHT22;20372;47.080;15.410;2023-07-20T07:03:12;23.20;93.00
34095;DHT22;20372;47.080;15.410;2023-07-20T07:05:38;23.10;93.00
34095;DHT22;20372;47.080;15.410;2023-07-20T07:08:04;23.10;92.60
34095;DHT22;20372;47.080;15.410;2023-07-20T07:10:30;23.00;92.70
34095;DHT22;20372;47.080;15.410;2023-07-20T07:12:56;23.00;92.50
34095;DHT22;20372;47.080;15.410;2023-07-20T07:15:21;23.10;93.90
34095;DHT22;20372;47.080;15.410;2023-07-20T07:17:47;23.20;92.70
34095;DHT22;20372;47.080;15.410;2023-07-20T07:20:12;23.20;92.70
34095;DHT22;20372;47.080;15.410;2023-07-20T07:22:38;23.20;92.70
34095;DHT22;20372;47.080;15.410;2023-07-20T07:25:04;23.30;92.70
34095;DHT22;20372;47.080;15.410;2023-07-20T07:27:30;23.20;92.60
34095;DHT22;20372;47.080;15.410;2023-07-20T07:29:55;23.40;92.50
34095;DHT22;20372;47.080;15.410;2023-07-20T07:32:21;23.50;92.00
34095;DHT22;20372;47.080;15.410;2023-07-20T07:34:46;23.50;92.00
34095;DHT22;20372;47.080;15.410;2023-07-20T07:37:13;23.60;92.20
34095;DHT22;20372;47.080;15.410;2023-07-20T07:39:39;23.50;92.10
34095;DHT22;20372;47.080;15.410;2023-07-20T07:42:05;23.90;92.50
34095;DHT22;20372;47.080;15.410;2023-07-20T07:44:31;24.50;92.30
34095;DHT22;20372;47.080;15.410;2023-07-20T07:46:56;24.50;91.20
34095;DHT22;20372;47.080;15.410;2023-07-20T07:49:22;24.80;92.20
34095;DHT22;20372;47.080;15.410;2023-07-20T07:51:48;26.80;90.20
34095;DHT22;20372;47.080;15.410;2023-07-20T07:54:14;28.10;86.60
34095;DHT22;20372;47.080;15.410;2023-07-20T07:56:39;28.70;83.90
34095;DHT22;20372;47.080;15.410;2023-07-20T07:59:06;28.30;81.30
34095;DHT22;20372;47.080;15.410;2023-07-20T08:01:32;28.50;84.40
34095;DHT22;20372;47.080;15.410;2023-07-20T08:03:57;29.40;81.20
34095;DHT22;20372;47.080;15.410;2023-07-20T08:06:23;29.20;80.80
34095;DHT22;20372;47.080;15.410;2023-07-20T08:08:49;28.90;80.70
34095;DHT22;20372;47.080;15.410;2023-07-20T08:11:15;29.30;83.60
34095;DHT22;20372;47.080;15.410;2023-07-20T08:13:41;29.40;79.50
34095;DHT22;20372;47.080;15.410;2023-07-20T08:16:07;29.50;84.60
34095;DHT22;20372;47.080;15.410;2023-07-20T08:18:33;30.10;85.00
34095;DHT22;20372;47.080;15.410;2023-07-20T08:20:58;28.30;76.60
34095;DHT22;20372;47.080;15.410;2023-07-20T08:23:24;28.00;79.00
34095;DHT22;20372;47.080;15.410;2023-07-20T08:25:49;29.00;82.70
34095;DHT22;20372;47.080;15.410;2023-07-20T08:28:15;30.20;78.10
34095;DHT22;20372;47.080;15.410;2023-07-20T08:30:42;29.70;76.60
34095;DHT22;20372;47.080;15.410;2023-07-20T08:33:09;30.60;76.00
34095;DHT22;20372;47.080;15.410;2023-07-20T08:35:34;30.80;74.50
34095;DHT22;20372;47.080;15.410;2023-07-20T08:38:00;30.80;73.80
34095;DHT22;20372;47.080;15.410;2023-07-20T08:40:26;31.70;73.80
34095;DHT22;20372;47.080;15.410;2023-07-20T08:42:52;31.90;75.80
34095;DHT22;20372;47.080;15.410;2023-07-20T08:45:20;32.80;71.10
34095;DHT22;20372;47.080;15.410;2023-07-20T08:47:47;33.40;73.90
34095;DHT22;20372;47.080;15.410;2023-07-20T08:50:14;33.70;71.20
34095;DHT22;20372;47.080;15.410;2023-07-20T08:52:40;33.50;67.80
34095;DHT22;20372;47.080;15.410;2023-07-20T08:55:06;33.00;65.20
34095;DHT22;20372;47.080;15.410;2023-07-20T08:57:32;32.50;67.00
34095;DHT22;20372;47.080;15.410;2023-07-20T08:59:58;32.70;71.30
34095;DHT22;20372;47.080;15.410;2023-07-20T09:02:24;33.10;71.70
34095;DHT22;20372;47.080;15.410;2023-07-20T09:04:50;33.70;65.70
34095;DHT22;20372;47.080;15.410;2023-07-20T09:07:16;33.60;63.20
34095;DHT22;20372;47.080;15.410;2023-07-20T09:09:42;33.20;67.60
34095;DHT22;20372;47.080;15.410;2023-07-20T09:12:14;33.30;67.80
34095;DHT22;20372;47.080;15.410;2023-07-20T09:14:44;33.30;70.60
34095;DHT22;20372;47.080;15.410;2023-07-20T09:17:13;33.00;65.20
34095;DHT22;20372;47.080;15.410;2023-07-20T09:19:42;32.80;68.20
34095;DHT22;20372;47.080;15.410;2023-07-20T09:22:10;32.60;63.10
34095;DHT22;20372;47.080;15.410;2023-07-20T09:24:36;31.70;63.10
34095;DHT22;20372;47.080;15.410;2023-07-20T09:27:01;31.00;64.90
34095;DHT22;20372;47.080;15.410;2023-07-20T09:29:30;32.00;66.40
34095;DHT22;20372;47.080;15.410;2023-07-20T09:32:04;33.20;66.80
34095;DHT22;20372;47.080;15.410;2023-07-20T09:34:30;33.20;63.20
34095;DHT22;20372;47.080;15.410;2023-07-20T09:36:58;33.30;62.20
34095;DHT22;20372;47.080;15.410;2023-07-20T09:39:24;33.30;62.20
34095;DHT22;20372;47.080;15.410;2023-07-20T09:41:51;31.50;63.20
34095;DHT22;20372;47.080;15.410;2023-07-20T09:44:17;31.20;65.80
34095;DHT22;20372;47.080;15.410;2023-07-20T09:46:44;30.70;67.90
34095;DHT22;20372;47.080;15.410;2023-07-20T09:49:09;30.60;71.80
34095;DHT22;20372;47.080;15.410;2023-07-20T09:51:36;30.60;73.30
34095;DHT22;20372;47.080;15.410;2023-07-20T09:54:02;29.90;69.00
34095;DHT22;20372;47.080;15.410;2023-07-20T09:56:28;29.10;72.60
34095;DHT22;20372;47.080;15.410;2023-07-20T09:58:55;29.40;71.00
34095;DHT22;20372;47.080;15.410;2023-07-20T10:01:21;29.70;70.70
34095;DHT22;20372;47.080;15.410;2023-07-20T10:03:48;29.60;73.60
34095;DHT22;20372;47.080;15.410;2023-07-20T10:06:18;30.20;72.20
34095;DHT22;20372;47.080;15.410;2023-07-20T10:08:45;29.40;72.10
34095;DHT22;20372;47.080;15.410;2023-07-20T10:11:13;29.50;76.20
34095;DHT22;20372;47.080;15.410;2023-07-20T10:13:41;30.00;76.30
34095;DHT22;20372;47.080;15.410;2023-07-20T10:18:49;28.60;74.40
34095;DHT22;20372;47.080;15.410;2023-07-20T10:21:16;28.20;76.40
34095;DHT22;20372;47.080;15.410;2023-07-20T10:23:43;27.90;78.60
34095;DHT22;20372;47.080;15.410;2023-07-20T10:26:08;27.50;79.40
34095;DHT22;20372;47.080;15.410;2023-07-20T10:28:35;27.50;80.80
34095;DHT22;20372;47.080;15.410;2023-07-20T10:31:01;27.30;83.90
34095;DHT22;20372;47.080;15.410;2023-07-20T10:33:27;27.10;85.00
34095;DHT22;20372;47.080;15.410;2023-07-20T10:35:53;27.00;87.40
34095;DHT22;20372;47.080;15.410;2023-07-20T10:38:19;27.50;85.50
34095;DHT22;20372;47.080;15.410;2023-07-20T10:40:54;28.10;86.70
34095;DHT22;20372;47.080;15.410;2023-07-20T10:43:20;27.80;82.60
34095;DHT22;20372;47.080;15.410;2023-07-20T10:45:50;27.50;83.80
34095;DHT22;20372;47.080;15.410;2023-07-20T10:48:19;27.70;85.60
34095;DHT22;20372;47.080;15.410;2023-07-20T10:50:45;27.40;85.80
34095;DHT22;20372;47.080;15.410;2023-07-20T10:55:38;26.90;83.70
34095;DHT22;20372;47.080;15.410;2023-07-20T10:58:08;26.70;83.70
34095;DHT22;20372;47.080;15.410;2023-07-20T11:00:35;26.50;85.90
34095;DHT22;20372;47.080;15.410;2023-07-20T11:03:01;26.40;89.80
34095;DHT22;20372;47.080;15.410;2023-07-20T11:05:36;26.90;88.60
34095;DHT22;20372;47.080;15.410;2023-07-20T11:08:03;27.00;90.80
34095;DHT22;20372;47.080;15.410;2023-07-20T11:10:29;26.80;90.30
34095;DHT22;20372;47.080;15.410;2023-07-20T11:13:15;26.60;82.10
34095;DHT22;20372;47.080;15.410;2023-07-20T11:18:25;27.40;82.60
34095;DHT22;20372;47.080;15.410;2023-07-20T11:20:50;27.30;79.70
34095;DHT22;20372;47.080;15.410;2023-07-20T11:23:17;27.30;79.90
34095;DHT22;20372;47.080;15.410;2023-07-20T11:25:42;27.60;83.50
34095;DHT22;20372;47.080;15.410;2023-07-20T11:28:09;27.30;79.70
34095;DHT22;20372;47.080;15.410;2023-07-20T11:30:36;27.10;84.20
34095;DHT22;20372;47.080;15.410;2023-07-20T11:33:02;26.90;80.70
34095;DHT22;20372;47.080;15.410;2023-07-20T11:35:27;27.00;82.80
34095;DHT22;20372;47.080;15.410;2023-07-20T11:37:53;27.00;80.70
34095;DHT22;20372;47.080;15.410;2023-07-20T11:40:20;27.10;83.00
34095;DHT22;20372;47.080;15.410;2023-07-20T11:42:45;27.10;83.20
34095;DHT22;20372;47.080;15.410;2023-07-20T11:45:11;27.30;81.90
34095;DHT22;20372;47.080;15.410;2023-07-20T11:47:40;27.30;83.60
34095;DHT22;20372;47.080;15.410;2023-07-20T11:50:07;27.90;81.80
34095;DHT22;20372;47.080;15.410;2023-07-20T11:52:33;28.30;81.50
34095;DHT22;20372;47.080;15.410;2023-07-20T11:54:59;28.70;80.10
34095;DHT22;20372;47.080;15.410;2023-07-20T11:57:25;28.50;79.70
34095;DHT22;20372;47.080;15.410;2023-07-20T11:59:57;28.30;77.60
34095;DHT22;20372;47.080;15.410;2023-07-20T12:02:24;27.90;81.30
34095;DHT22;20372;47.080;15.410;2023-07-20T12:04:51;27.90;78.50
34095;DHT22;20372;47.080;15.410;2023-07-20T12:07:20;27.90;81.50
34095;DHT22;20372;47.080;15.410;2023-07-20T12:12:34;26.80;81.10
34095;DHT22;20372;47.080;15.410;2023-07-20T12:18:01;26.70;83.40
34095;DHT22;20372;47.080;15.410;2023-07-20T12:20:28;26.70;85.40
34095;DHT22;20372;47.080;15.410;2023-07-20T12:22:59;26.70;83.30
34095;DHT22;20372;47.080;15.410;2023-07-20T12:25:41;26.30;82.70
34095;DHT22;20372;47.080;15.410;2023-07-20T12:28:08;25.80;84.50
34095;DHT22;20372;47.080;15.410;2023-07-20T12:30:34;25.50;86.00
34095;DHT22;20372;47.080;15.410;2023-07-20T12:32:59;25.60;90.20
34095;DHT22;20372;47.080;15.410;2023-07-20T12:35:25;25.50;89.70
34095;DHT22;20372;47.080;15.410;2023-07-20T12:37:51;25.30;89.20
34095;DHT22;20372;47.080;15.410;2023-07-20T12:40:17;24.80;89.60
34095;DHT22;20372;47.080;15.410;2023-07-20T12:42:43;24.30;90.40
34095;DHT22;20372;47.080;15.410;2023-07-20T12:45:08;24.10;91.70
34095;DHT22;20372;47.080;15.410;2023-07-20T12:47:34;24.00;91.70
34095;DHT22;20372;47.080;15.410;2023-07-20T12:49:59;23.80;92.00
34095;DHT22;20372;47.080;15.410;2023-07-20T12:52:25;23.50;95.70
34095;DHT22;20372;47.080;15.410;2023-07-20T12:54:51;22.30;99.90
34095;DHT22;20372;47.080;15.410;2023-07-20T12:57:16;21.60;99.90
34095;DHT22;20372;47.080;15.410;2023-07-20T12:59:42;21.20;99.90
34095;DHT22;20372;47.080;15.410;2023-07-20T13:02:08;21.60;99.90
34095;DHT22;20372;47.080;15.410;2023-07-20T13:04:33;21.60;99.90
34095;DHT22;20372;47.080;15.410;2023-07-20T13:06:59;21.50;99.90
34095;DHT22;20372;47.080;15.410;2023-07-20T13:09:25;21.70;99.90
34095;DHT22;20372;47.080;15.410;2023-07-20T13:11:51;21.80;99.90
34095;DHT22;20372;47.080;15.410;2023-07-20T13:14:17;21.60;99.90
34095;DHT22;20372;47.080;15.410;2023-07-20T13:16:43;21.50;99.90
34095;DHT22;20372;47.080;15.410;2023-07-20T13:19:09;21.20;99.90
34095;DHT22;20372;47.080;15.410;2023-07-20T13:21:34;21.40;99.90
34095;DHT22;20372;47.080;15.410;2023-07-20T13:24:00;21.40;99.90
34095;DHT22;20372;47.080;15.410;2023-07-20T13:26:25;21.50;99.90
34095;DHT22;20372;47.080;15.410;2023-07-20T13:28:51;21.70;99.90
34095;DHT22;20372;47.080;15.410;2023-07-20T13:31:16;22.00;99.90
34095;DHT22;20372;47.080;15.410;2023-07-20T13:33:43;22.20;99.90
34095;DHT22;20372;47.080;15.410;2023-07-20T13:36:09;22.20;99.90
34095;DHT22;20372;47.080;15.410;2023-07-20T13:38:35;22.40;99.90
34095;DHT22;20372;47.080;15.410;2023-07-20T13:41:00;22.60;99.90
34095;DHT22;20372;47.080;15.410;2023-07-20T13:43:26;22.50;99.90
34095;DHT22;20372;47.080;15.410;2023-07-20T13:45:51;22.40;99.90
34095;DHT22;20372;47.080;15.410;2023-07-20T13:48:17;22.40;99.90
34095;DHT22;20372;47.080;15.410;2023-07-20T13:50:45;22.60;99.90
34095;DHT22;20372;47.080;15.410;2023-07-20T13:53:11;23.00;99.90
34095;DHT22;20372;47.080;15.410;2023-07-20T13:55:38;23.20;99.90
34095;DHT22;20372;47.080;15.410;2023-07-20T13:58:03;23.20;99.90
34095;DHT22;20372;47.080;15.410;2023-07-20T14:00:30;23.00;99.90
34095;DHT22;20372;47.080;15.410;2023-07-20T14:02:58;23.20;99.90
34095;DHT22;20372;47.080;15.410;2023-07-20T14:05:24;23.20;99.90
34095;DHT22;20372;47.080;15.410;2023-07-20T14:07:51;23.30;99.90
34095;DHT22;20372;47.080;15.410;2023-07-20T14:10:16;23.50;99.90
34095;DHT22;20372;47.080;15.410;2023-07-20T14:12:43;23.90;99.90
34095;DHT22;20372;47.080;15.410;2023-07-20T14:15:10;23.80;99.90
34095;DHT22;20372;47.080;15.410;2023-07-20T14:17:36;23.80;99.90
34095;DHT22;20372;47.080;15.410;2023-07-20T14:20:01;23.90;99.90
34095;DHT22;20372;47.080;15.410;2023-07-20T14:22:30;23.90;99.90
34095;DHT22;20372;47.080;15.410;2023-07-20T14:24:56;24.20;99.90
34095;DHT22;20372;47.080;15.410;2023-07-20T14:27:22;24.40;99.90
34095;DHT22;20372;47.080;15.410;2023-07-20T14:29:47;24.50;99.60
34095;DHT22;20372;47.080;15.410;2023-07-20T14:32:13;24.60;99.90
34095;DHT22;20372;47.080;15.410;2023-07-20T14:34:38;24.70;99.30
34095;DHT22;20372;47.080;15.410;2023-07-20T14:37:06;24.60;98.90
34095;DHT22;20372;47.080;15.410;2023-07-20T14:39:32;24.70;99.90
34095;DHT22;20372;47.080;15.410;2023-07-20T14:41:57;24.70;99.60
34095;DHT22;20372;47.080;15.410;2023-07-20T14:44:23;24.70;99.10
34095;DHT22;20372;47.080;15.410;2023-07-20T14:46:49;24.70;99.90
34095;DHT22;20372;47.080;15.410;2023-07-20T14:49:15;24.90;99.80
34095;DHT22;20372;47.080;15.410;2023-07-20T14:51:40;24.90;99.90
34095;DHT22;20372;47.080;15.410;2023-07-20T14:54:12;24.90;99.90
34095;DHT22;20372;47.080;15.410;2023-07-20T14:56:38;25.00;99.90
34095;DHT22;20372;47.080;15.410;2023-07-20T14:59:03;25.10;99.90
34095;DHT22;20372;47.080;15.410;2023-07-20T15:01:31;25.10;99.40
34095;DHT22;20372;47.080;15.410;2023-07-20T15:03:56;24.70;99.90
34095;DHT22;20372;47.080;15.410;2023-07-20T15:06:23;25.00;99.90
34095;DHT22;20372;47.080;15.410;2023-07-20T15:08:48;25.00;98.80
34095;DHT22;20372;47.080;15.410;2023-07-20T15:11:14;25.30;99.90
34095;DHT22;20372;47.080;15.410;2023-07-20T15:13:39;25.50;99.90
34095;DHT22;20372;47.080;15.410;2023-07-20T15:16:08;25.60;99.90
34095;DHT22;20372;47.080;15.410;2023-07-20T15:18:35;25.40;98.00
34095;DHT22;20372;47.080;15.410;2023-07-20T15:21:00;25.20;96.70
34095;DHT22;20372;47.080;15.410;2023-07-20T15:23:26;25.10;97.50
34095;DHT22;20372;47.080;15.410;2023-07-20T15:25:52;25.30;99.90
34095;DHT22;20372;47.080;15.410;2023-07-20T15:28:17;25.30;97.00
34095;DHT22;20372;47.080;15.410;2023-07-20T15:30:43;25.50;97.20
34095;DHT22;20372;47.080;15.410;2023-07-20T15:33:10;25.60;96.50